createdAt,value
2018-05-18T00:01:04.281Z,96722
2018-05-18T00:03:45.365Z,96706
2018-05-18T00:06:26.072Z,96713
2018-05-18T00:09:06.632Z,96713
2018-05-18T00:11:47.952Z,96725
2018-05-18T00:14:28.314Z,96712
2018-05-18T00:17:09.668Z,96715
2018-05-18T00:19:50.180Z,96722
2018-05-18T00:22:30.937Z,96722
2018-05-18T00:25:11.372Z,96720
2018-05-18T00:27:52.094Z,96722
2018-05-18T00:30:34.424Z,96721
2018-05-18T00:33:14.742Z,96734
2018-05-18T00:35:55.555Z,96734
2018-05-18T00:38:37.004Z,96730
2018-05-18T00:41:17.589Z,96724
2018-05-18T00:44:02.965Z,96734
2018-05-18T00:46:43.289Z,96734
2018-05-18T00:49:23.741Z,96747
2018-05-18T00:52:04.150Z,96747
2018-05-18T00:54:44.546Z,96739
2018-05-18T00:57:24.998Z,96747
2018-05-18T01:00:05.416Z,96736
2018-05-18T01:02:45.919Z,96739
2018-05-18T01:05:26.699Z,96746
2018-05-18T01:08:07.216Z,96748
2018-05-18T01:10:47.720Z,96746
2018-05-18T01:13:28.200Z,96757
2018-05-18T01:16:08.529Z,96745
2018-05-18T01:18:49.052Z,96750
2018-05-18T01:21:29.478Z,96750
2018-05-18T01:24:09.843Z,96741
2018-05-18T01:26:55.569Z,96754
2018-05-18T01:29:35.848Z,96749
2018-05-18T01:32:16.205Z,96749
2018-05-18T01:34:56.659Z,96757
2018-05-18T01:37:37.022Z,96757
2018-05-18T01:40:17.401Z,96763
2018-05-18T01:42:57.711Z,96751
2018-05-18T01:45:38.515Z,96758
2018-05-18T01:48:19.377Z,96767
2018-05-18T01:50:59.714Z,96766
2018-05-18T01:53:40.452Z,96765
2018-05-18T01:56:20.849Z,96753
2018-05-18T02:01:59.273Z,96764
2018-05-18T02:04:43.375Z,96771
2018-05-18T02:07:26.110Z,96768
2018-05-18T02:10:06.492Z,96768
2018-05-18T02:12:48.480Z,96773
2018-05-18T02:15:29.310Z,96778
2018-05-18T02:18:09.633Z,96775
2018-05-18T02:20:50.581Z,96775
2018-05-18T02:23:31.372Z,96778
2018-05-18T02:26:14.750Z,96769
2018-05-18T02:28:55.087Z,96776
2018-05-18T02:31:35.627Z,96768
2018-05-18T02:34:17.754Z,96777
2018-05-18T02:37:01.487Z,96776
2018-05-18T02:39:41.880Z,96781
2018-05-18T02:42:23.432Z,96783
2018-05-18T02:45:03.740Z,96773
2018-05-18T02:47:44.080Z,96786
2018-05-18T02:50:24.977Z,96783
2018-05-18T02:53:05.305Z,96784
2018-05-18T02:55:46.421Z,96783
2018-05-18T02:58:26.772Z,96791
2018-05-18T03:01:07.342Z,96791
2018-05-18T03:03:47.780Z,96797
2018-05-18T03:06:28.762Z,96800
2018-05-18T03:09:09.219Z,96802
2018-05-18T03:11:52.101Z,96799
2018-05-18T03:14:32.540Z,96798
2018-05-18T03:17:12.850Z,96806
2018-05-18T03:19:55.398Z,96805
2018-05-18T03:22:36.843Z,96810
2018-05-18T03:25:18.577Z,96807
2018-05-18T03:28:00.315Z,96816
2018-05-18T03:30:41.788Z,96818
2018-05-18T03:33:23.369Z,96812
2018-05-18T03:36:03.834Z,96815
2018-05-18T03:38:44.183Z,96815
2018-05-18T03:41:26.364Z,96815
2018-05-18T03:44:06.663Z,96808
2018-05-18T03:46:47.936Z,96814
2018-05-18T03:49:29.025Z,96814
2018-05-18T03:52:09.325Z,96833
2018-05-18T03:54:51.220Z,96841
2018-05-18T03:57:31.913Z,96827
2018-05-18T04:00:12.294Z,96822
2018-05-18T04:03:15.873Z,96833
2018-05-18T04:06:14.129Z,96829
2018-05-18T04:08:56.057Z,96829
2018-05-18T04:11:36.393Z,96836
2018-05-18T04:14:17.279Z,96835
2018-05-18T04:16:57.673Z,96836
2018-05-18T04:19:37.985Z,96834
2018-05-18T04:22:19.138Z,96845
2018-05-18T04:24:59.645Z,96850
2018-05-18T04:27:39.995Z,96851
2018-05-18T04:30:20.663Z,96842
2018-05-18T04:33:00.984Z,96845
2018-05-18T04:35:43.297Z,96849
2018-05-18T04:38:26.989Z,96848
2018-05-18T04:41:07.190Z,96858
2018-05-18T04:43:47.710Z,96856
2018-05-18T04:46:28.144Z,96859
2018-05-18T04:49:08.840Z,96859
2018-05-18T04:51:51.240Z,96860
2018-05-18T04:54:31.988Z,96864
2018-05-18T04:57:13.359Z,96864
2018-05-18T04:59:54.430Z,96871
2018-05-18T05:02:34.743Z,96864
2018-05-18T05:05:15.118Z,96873
2018-05-18T05:07:56.914Z,96874
2018-05-18T05:10:37.238Z,96871
2018-05-18T05:13:17.578Z,96870
2018-05-18T05:15:58.861Z,96871
2018-05-18T05:18:39.201Z,96877
2018-05-18T05:21:21.975Z,96891
2018-05-18T05:24:02.322Z,96889
2018-05-18T05:26:42.904Z,96881
2018-05-18T05:29:23.340Z,96891
2018-05-18T05:32:03.654Z,96886
2018-05-18T05:34:43.824Z,96891
2018-05-18T05:37:25.178Z,96894
2018-05-18T05:40:05.835Z,96885
2018-05-18T05:42:46.521Z,96892
2018-05-18T05:45:27.677Z,96894
2018-05-18T05:48:08.129Z,96894
2018-05-18T05:50:49.197Z,96899
2018-05-18T05:53:29.689Z,96905
2018-05-18T05:56:10.602Z,96912
2018-05-18T05:58:52.609Z,96913
2018-05-18T06:01:32.910Z,96917
2018-05-18T06:04:14.093Z,96929
2018-05-18T06:06:55.188Z,96926
2018-05-18T06:09:36.345Z,96926
2018-05-18T06:12:18.201Z,96927
2018-05-18T06:14:59.439Z,96932
2018-05-18T06:17:40.593Z,96936
2018-05-18T06:20:21.517Z,96938
2018-05-18T06:23:01.894Z,96942
2018-05-18T06:25:45.461Z,96952
2018-05-18T06:28:25.695Z,96942
2018-05-18T06:31:06.428Z,96956
2018-05-18T06:33:46.851Z,96964
2018-05-18T06:36:27.213Z,96962
2018-05-18T06:39:07.681Z,96963
2018-05-18T06:41:49.506Z,96960
2018-05-18T06:44:29.734Z,96974
2018-05-18T06:47:11.283Z,96968
2018-05-18T06:49:53.659Z,96968
2018-05-18T06:52:35.982Z,96969
2018-05-18T06:55:16.477Z,96987
2018-05-18T06:57:56.895Z,96974
2018-05-18T07:00:40.153Z,96983
2018-05-18T07:03:22.461Z,96988
2018-05-18T07:06:06.185Z,96999
2018-05-18T07:08:48.570Z,96996
2018-05-18T07:11:29.172Z,97009
2018-05-18T07:14:10.383Z,97012
2018-05-18T07:16:52.188Z,97015
2018-05-18T07:19:33.092Z,97019
2018-05-18T07:22:14.571Z,97019
2018-05-18T07:24:55.069Z,97027
2018-05-18T07:27:35.430Z,97033
2018-05-18T07:30:15.741Z,97028
2018-05-18T07:32:56.149Z,97034
2018-05-18T07:35:36.603Z,97031
2018-05-18T07:38:17.653Z,97043
2018-05-18T07:40:57.992Z,97040
2018-05-18T07:43:38.459Z,97051
2018-05-18T07:46:18.820Z,97052
2018-05-18T07:48:59.209Z,97054
2018-05-18T07:51:39.478Z,97060
2018-05-18T07:54:20.529Z,97069
2018-05-18T07:57:00.987Z,97072
2018-05-18T07:59:41.345Z,97077
2018-05-18T08:02:23.355Z,97077
2018-05-18T08:05:03.800Z,97080
2018-05-18T08:07:44.100Z,97080
2018-05-18T08:10:25.428Z,97082
2018-05-18T08:13:05.752Z,97084
2018-05-18T08:15:46.133Z,97087
2018-05-18T08:18:26.559Z,97083
2018-05-18T08:21:06.909Z,97082
2018-05-18T08:23:48.941Z,97092
2018-05-18T08:26:36.966Z,97087
2018-05-18T08:29:46.145Z,97091
2018-05-18T08:32:26.785Z,97101
2018-05-18T08:35:07.148Z,97096
2018-05-18T08:37:48.424Z,97093
2018-05-18T08:40:29.421Z,97083
2018-05-18T08:43:09.748Z,97095
2018-05-18T08:45:50.720Z,97094
2018-05-18T08:48:31.900Z,97094
2018-05-18T08:51:12.409Z,97099
2018-05-18T08:53:53.639Z,97100
2018-05-18T08:56:34.606Z,97099
2018-05-18T08:59:18.646Z,97106
2018-05-18T09:01:59.389Z,97113
2018-05-18T09:04:39.782Z,97109
2018-05-18T09:07:21.969Z,97117
2018-05-18T09:10:02.972Z,97116
2018-05-18T09:12:44.025Z,97117
2018-05-18T09:15:27.390Z,97126
2018-05-18T09:18:08.046Z,97125
2018-05-18T09:20:48.848Z,97132
2018-05-18T09:23:30.157Z,97130
2018-05-18T09:26:16.213Z,97139
2018-05-18T09:28:57.550Z,97144
2018-05-18T09:31:38.869Z,97146
2018-05-18T09:34:19.548Z,97148
2018-05-18T09:36:59.888Z,97152
2018-05-18T09:39:40.227Z,97156
2018-05-18T09:42:22.026Z,97155
2018-05-18T09:45:03.309Z,97162
2018-05-18T09:47:43.942Z,97161
2018-05-18T09:50:25.828Z,97157
2018-05-18T09:53:06.184Z,97155
2018-05-18T09:55:46.643Z,97154
2018-05-18T09:58:27.007Z,97156
2018-05-18T10:01:08.654Z,97164
2018-05-18T10:03:52.825Z,97166
2018-05-18T10:06:34.076Z,97172
2018-05-18T10:09:15.153Z,97168
2018-05-18T10:11:55.786Z,97173
2018-05-18T10:14:36.081Z,97181
2018-05-18T10:17:17.752Z,97178
2018-05-18T10:19:58.090Z,97183
2018-05-18T10:22:38.513Z,97176
2018-05-18T10:25:28.804Z,97188
2018-05-18T10:28:09.252Z,97192
2018-05-18T10:30:50.776Z,97196
2018-05-18T10:33:32.941Z,97200
2018-05-18T10:36:13.997Z,97202
2018-05-18T10:39:00.712Z,97209
2018-05-18T10:41:41.828Z,97202
2018-05-18T10:44:22.502Z,97213
2018-05-18T10:47:06.090Z,97212
2018-05-18T10:49:47.952Z,97216
2018-05-18T10:52:28.412Z,97207
2018-05-18T10:55:08.731Z,97226
2018-05-18T10:57:49.517Z,97228
2018-05-18T11:00:29.856Z,97233
2018-05-18T11:03:10.264Z,97225
2018-05-18T11:05:57.922Z,97225
2018-05-18T11:08:39.197Z,97239
2018-05-18T11:11:19.616Z,97228
2018-05-18T11:14:00.666Z,97233
2018-05-18T11:16:43.854Z,97229
2018-05-18T11:19:25.616Z,97227
2018-05-18T11:22:05.952Z,97231
2018-05-18T11:24:46.447Z,97229
2018-05-18T11:27:26.808Z,97231
2018-05-18T11:30:07.249Z,97230
2018-05-18T11:32:47.566Z,97236
2018-05-18T11:35:33.389Z,97236
2018-05-18T11:38:13.914Z,97234
2018-05-18T11:40:55.234Z,97240
2018-05-18T11:43:35.574Z,97236
2018-05-18T11:46:17.889Z,97232
2018-05-18T11:48:59.691Z,97226
2018-05-18T11:51:40.153Z,97231
2018-05-18T11:54:24.460Z,97224
2018-05-18T11:57:06.263Z,97226
2018-05-18T11:59:46.741Z,97229
2018-05-18T12:02:28.463Z,97219
2018-05-18T12:05:08.770Z,97225
2018-05-18T12:07:51.185Z,97223
2018-05-18T12:10:34.602Z,97220
2018-05-18T12:13:15.078Z,97229
2018-05-18T12:15:55.931Z,97225
2018-05-18T12:18:36.393Z,97221
2018-05-18T12:21:17.498Z,97210
2018-05-18T12:23:58.007Z,97210
2018-05-18T12:26:44.260Z,97206
2018-05-18T12:29:26.912Z,97215
2018-05-18T12:32:17.752Z,97224
2018-05-18T12:35:03.586Z,97224
2018-05-18T12:37:43.904Z,97228
2018-05-18T12:40:24.871Z,97228
2018-05-18T12:43:06.209Z,97216
2018-05-18T12:45:47.241Z,97232
2018-05-18T12:48:32.079Z,97223
2018-05-18T12:51:14.615Z,97222
2018-05-18T12:53:55.185Z,97223
2018-05-18T12:56:35.576Z,97219
2018-05-18T12:59:15.921Z,97224
2018-05-18T13:01:57.050Z,97218
2018-05-18T13:04:37.520Z,97222
2018-05-18T13:07:17.788Z,97215
2018-05-18T13:09:59.868Z,97215
2018-05-18T13:12:40.206Z,97205
2018-05-18T13:15:21.554Z,97213
2018-05-18T13:18:02.291Z,97212
2018-05-18T13:20:42.729Z,97213
2018-05-18T13:23:23.539Z,97218
2018-05-18T13:26:04.009Z,97208
2018-05-18T13:28:44.242Z,97206
2018-05-18T13:31:29.726Z,97204
2018-05-18T13:34:10.071Z,97210
2018-05-18T13:36:52.193Z,97207
2018-05-18T13:39:32.558Z,97208
2018-05-18T13:42:12.870Z,97207
2018-05-18T13:44:54.624Z,97199
2018-05-18T13:47:36.300Z,97207
2018-05-18T13:50:17.899Z,97201
2018-05-18T13:52:58.216Z,97200
2018-05-18T13:55:39.180Z,97207
2018-05-18T13:58:21.011Z,97210
2018-05-18T14:01:04.245Z,97210
2018-05-18T14:03:45.007Z,97208
2018-05-18T14:06:25.779Z,97205
2018-05-18T14:09:07.930Z,97202
2018-05-18T14:11:48.305Z,97211
2018-05-18T14:14:30.493Z,97198
2018-05-18T14:17:10.960Z,97194
2018-05-18T14:19:53.467Z,97193
2018-05-18T14:22:34.693Z,97192
2018-05-18T14:25:15.221Z,97191
2018-05-18T14:27:55.594Z,97192
2018-05-18T14:30:36.481Z,97188
2018-05-18T14:33:17.188Z,97186
2018-05-18T14:35:58.161Z,97188
2018-05-18T14:38:38.422Z,97181
2018-05-18T14:41:18.622Z,97183
2018-05-18T14:43:59.332Z,97182
2018-05-18T14:46:39.766Z,97181
2018-05-18T14:49:21.744Z,97185
2018-05-18T14:52:02.901Z,97177
2018-05-18T14:54:43.514Z,97179
2018-05-18T14:57:25.897Z,97188
2018-05-18T15:00:06.096Z,97174
2018-05-18T15:02:46.408Z,97181
2018-05-18T15:05:26.735Z,97167
2018-05-18T15:08:07.087Z,97179
2018-05-18T15:10:48.136Z,97186
2018-05-18T15:13:28.494Z,97180
2018-05-18T15:16:08.884Z,97181
2018-05-18T15:18:50.761Z,97183
2018-05-18T15:21:31.246Z,97193
2018-05-18T15:24:11.540Z,97181
2018-05-18T15:26:52.808Z,97178
2018-05-18T15:29:34.215Z,97183
2018-05-18T15:32:14.703Z,97173
2018-05-18T15:34:56.432Z,97176
2018-05-18T15:37:36.809Z,97176
2018-05-18T15:43:35.274Z,97178
2018-05-18T15:46:16.493Z,97183
2018-05-18T15:48:59.910Z,97184
2018-05-18T15:51:40.265Z,97179
2018-05-18T15:54:20.944Z,97188
2018-05-18T15:57:02.315Z,97188
2018-05-18T15:59:59.040Z,97186
2018-05-18T16:02:42.173Z,97181
2018-05-18T16:05:23.831Z,97187
2018-05-18T16:08:04.370Z,97191
2018-05-18T16:10:44.785Z,97183
2018-05-18T16:13:25.562Z,97187
2018-05-18T16:16:07.313Z,97189
2018-05-18T16:18:50.133Z,97191
2018-05-18T16:21:31.950Z,97195
2018-05-18T16:24:13.319Z,97197
2018-05-18T16:26:55.391Z,97208
2018-05-18T16:29:41.854Z,97203
2018-05-18T16:32:24.187Z,97202
2018-05-18T16:35:07.135Z,97205
2018-05-18T16:37:47.498Z,97205
2018-05-18T16:40:28.218Z,97204
2018-05-18T16:43:09.632Z,97206
2018-05-18T16:45:50.070Z,97206
2018-05-18T16:48:33.040Z,97205
2018-05-18T16:51:13.355Z,97212
2018-05-18T16:53:56.069Z,97209
2018-05-18T16:56:36.518Z,97209
2018-05-18T16:59:16.825Z,97207
2018-05-18T17:01:57.952Z,97210
2018-05-18T17:04:39.529Z,97210
2018-05-18T17:07:20.142Z,97209
2018-05-18T17:10:03.505Z,97215
2018-05-18T17:12:44.029Z,97218
2018-05-18T17:15:24.968Z,97220
2018-05-18T17:18:06.031Z,97226
2018-05-18T17:20:53.897Z,97223
2018-05-18T17:23:35.039Z,97226
2018-05-18T17:26:16.704Z,97224
2018-05-18T17:29:02.910Z,97231
2018-05-18T17:31:43.328Z,97238
2018-05-18T17:34:25.968Z,97248
2018-05-18T17:37:07.254Z,97246
2018-05-18T17:39:47.709Z,97234
2018-05-18T17:42:31.858Z,97238
2018-05-18T17:45:14.657Z,97221
2018-05-18T17:47:55.932Z,97225
2018-05-18T17:50:36.325Z,97223
2018-05-18T17:53:17.599Z,97229
2018-05-18T17:55:58.997Z,97229
2018-05-18T17:58:41.105Z,97234
2018-05-18T18:01:22.855Z,97241
2018-05-18T18:04:03.351Z,97241
2018-05-18T18:06:47.959Z,97252
2018-05-18T18:09:28.457Z,97254
2018-05-18T18:12:12.269Z,97249
2018-05-18T18:14:53.092Z,97254
2018-05-18T18:17:35.794Z,97266
2018-05-18T18:20:16.345Z,97258
2018-05-18T18:23:02.657Z,97263
2018-05-18T18:25:44.065Z,97271
2018-05-18T18:28:24.928Z,97270
2018-05-18T18:31:06.601Z,97280
2018-05-18T18:33:46.902Z,97285
2018-05-18T18:36:27.406Z,97279
2018-05-18T18:39:08.637Z,97275
2018-05-18T18:41:49.066Z,97285
2018-05-18T18:44:31.070Z,97274
2018-05-18T18:47:15.093Z,97279
2018-05-18T18:49:55.725Z,97288
2018-05-18T18:52:39.085Z,97287
2018-05-18T18:55:19.478Z,97278
2018-05-18T18:58:00.934Z,97283
2018-05-18T19:00:41.397Z,97277
2018-05-18T19:03:24.281Z,97283
2018-05-18T19:06:04.713Z,97268
2018-05-18T19:08:45.071Z,97278
2018-05-18T19:11:25.882Z,97280
2018-05-18T19:14:07.328Z,97280
2018-05-18T19:16:49.708Z,97280
2018-05-18T19:19:30.134Z,97277
2018-05-18T19:22:15.060Z,97278
2018-05-18T19:24:55.663Z,97274
2018-05-18T19:27:35.969Z,97274
2018-05-18T19:30:16.377Z,97277
2018-05-18T19:32:57.219Z,97289
2018-05-18T19:35:37.563Z,97285
2018-05-18T19:38:19.354Z,97274
2018-05-18T19:41:00.333Z,97287
2018-05-18T19:43:41.625Z,97272
2018-05-18T19:46:22.640Z,97279
2018-05-18T19:49:03.765Z,97283
2018-05-18T19:51:44.090Z,97287
2018-05-18T19:54:24.968Z,97285
2018-05-18T19:57:06.064Z,97286
2018-05-18T19:59:46.500Z,97288
2018-05-18T20:02:26.732Z,97293
2018-05-18T20:05:07.055Z,97287
2018-05-18T20:07:48.137Z,97289
2018-05-18T20:10:29.449Z,97287
2018-05-18T20:13:10.246Z,97290
2018-05-18T20:15:51.425Z,97291
2018-05-18T20:18:31.924Z,97293
2018-05-18T20:21:12.506Z,97296
2018-05-18T20:23:58.872Z,97295
2018-05-18T20:26:39.349Z,97295
2018-05-18T20:29:19.680Z,97295
2018-05-18T20:32:00.644Z,97291
2018-05-18T20:34:42.757Z,97298
2018-05-18T20:37:23.225Z,97298
2018-05-18T20:40:03.838Z,97296
2018-05-18T20:42:45.006Z,97300
2018-05-18T20:45:26.788Z,97296
2018-05-18T20:48:08.678Z,97300
2018-05-18T20:50:49.932Z,97299
2018-05-18T20:53:30.232Z,97296
2018-05-18T20:56:10.656Z,97307
2018-05-18T20:58:51.521Z,97307
2018-05-18T21:01:31.916Z,97302
2018-05-18T21:04:12.290Z,97303
2018-05-18T21:06:55.828Z,97306
2018-05-18T21:09:40.304Z,97302
2018-05-18T21:12:20.760Z,97318
2018-05-18T21:15:01.151Z,97307
2018-05-18T21:17:41.497Z,97306
2018-05-18T21:20:24.653Z,97309
2018-05-18T21:23:08.005Z,97303
2018-05-18T21:25:49.593Z,97300
2018-05-18T21:28:30.717Z,97302
2018-05-18T21:31:12.821Z,97295
2018-05-18T21:34:02.068Z,97291
2018-05-18T21:36:42.409Z,97292
2018-05-18T21:39:27.862Z,97287
2018-05-18T21:42:09.081Z,97300
2018-05-18T21:44:51.139Z,97307
2018-05-18T21:47:33.747Z,97316
2018-05-18T21:50:14.094Z,97311
2018-05-18T21:52:54.865Z,97328
2018-05-18T21:55:35.318Z,97325
2018-05-18T21:58:15.772Z,97335
2018-05-18T22:00:56.221Z,97340
2018-05-18T22:03:36.556Z,97345
2018-05-18T22:06:17.168Z,97349
2018-05-18T22:08:58.485Z,97350
2018-05-18T22:11:46.797Z,97356
2018-05-18T22:14:31.715Z,97365
2018-05-18T22:17:12.120Z,97362
2018-05-18T22:19:57.060Z,97358
2018-05-18T22:22:44.022Z,97355
2018-05-18T22:25:24.986Z,97363
2018-05-18T22:28:05.408Z,97368
2018-05-18T22:30:45.768Z,97364
2018-05-18T22:33:26.625Z,97370
2018-05-18T22:36:07.875Z,97375
2018-05-18T22:38:48.604Z,97367
2018-05-18T22:41:29.699Z,97352
2018-05-18T22:44:11.057Z,97364
2018-05-18T22:46:53.297Z,97355
2018-05-18T22:49:33.734Z,97364
2018-05-18T22:52:14.173Z,97365
2018-05-18T22:55:00.183Z,97368
2018-05-18T22:57:42.813Z,97361
2018-05-18T23:00:26.837Z,97368
2018-05-18T23:03:07.261Z,97360
2018-05-18T23:05:47.715Z,97355
2018-05-18T23:08:28.053Z,97344
2018-05-18T23:11:10.203Z,97340
2018-05-18T23:13:57.341Z,97340
2018-05-18T23:16:37.682Z,97331
2018-05-18T23:19:18.794Z,97337
2018-05-18T23:21:59.193Z,97332
2018-05-18T23:24:40.424Z,97335
2018-05-18T23:27:28.689Z,97333
2018-05-18T23:30:10.407Z,97326
2018-05-18T23:32:51.689Z,97327
2018-05-18T23:35:32.111Z,97325
2018-05-18T23:38:12.528Z,97330
2018-05-18T23:40:53.928Z,97326
2018-05-18T23:43:34.284Z,97323
2018-05-18T23:46:14.622Z,97334
2018-05-18T23:48:54.953Z,97346
2018-05-18T23:51:35.316Z,97346
2018-05-18T23:54:15.680Z,97342
2018-05-18T23:56:56.174Z,97348
2018-05-18T23:59:36.565Z,97352
